sensor_id;sensor_type;location;lat;lon;timestamp;pressure;altitude;pressure_sealevel;temperature;humidity
55301;BME280;58302;51.446;-2.000;2023-01-25T00:02:02;102956.44;;;-5.48;100.00
55301;BME280;58302;51.446;-2.000;2023-01-25T00:04:29;102956.88;;;-5.42;100.00
55301;BME280;58302;51.446;-2.000;2023-01-25T00:06:55;102945.59;;;-5.31;100.00
55301;BME280;58302;51.446;-2.000;2023-01-25T00:09:22;102944.13;;;-5.22;100.00
55301;BME280;58302;51.446;-2.000;2023-01-25T00:11:48;102937.25;;;-5.12;100.00
55301;BME280;58302;51.446;-2.000;2023-01-25T00:14:15;102934.88;;;-5.03;100.00
55301;BME280;58302;51.446;-2.000;2023-01-25T00:16:42;102930.66;;;-4.92;100.00
55301;BME280;58302;51.446;-2.000;2023-01-25T00:19:08;102938.28;;;-4.88;100.00
55301;BME280;58302;51.446;-2.000;2023-01-25T00:21:35;102926.44;;;-4.82;100.00
55301;BME280;58302;51.446;-2.000;2023-01-25T00:24:01;102924.09;;;-4.74;100.00
55301;BME280;58302;51.446;-2.000;2023-01-25T00:26:32;102919.31;;;-4.69;100.00
55301;BME280;58302;51.446;-2.000;2023-01-25T00:28:58;102912.75;;;-4.63;100.00
55301;BME280;58302;51.446;-2.000;2023-01-25T00:36:45;102906.69;;;-4.53;100.00
55301;BME280;58302;51.446;-2.000;2023-01-25T00:39:12;102899.59;;;-4.52;100.00
55301;BME280;58302;51.446;-2.000;2023-01-25T00:41:39;102902.13;;;-4.51;100.00
55301;BME280;58302;51.446;-2.000;2023-01-25T00:44:05;102894.81;;;-4.47;100.00
55301;BME280;58302;51.446;-2.000;2023-01-25T00:46:31;102898.97;;;-4.43;100.00
55301;BME280;58302;51.446;-2.000;2023-01-25T00:48:57;102898.72;;;-4.40;100.00
55301;BME280;58302;51.446;-2.000;2023-01-25T00:51:23;102898.41;;;-4.35;100.00
55301;BME280;58302;51.446;-2.000;2023-01-25T00:53:50;102893.88;;;-4.33;100.00
55301;BME280;58302;51.446;-2.000;2023-01-25T00:56:17;102899.91;;;-4.31;100.00
55301;BME280;58302;51.446;-2.000;2023-01-25T00:58:43;102902.44;;;-4.30;100.00
55301;BME280;58302;51.446;-2.000;2023-01-25T01:01:09;102895.25;;;-4.28;100.00
55301;BME280;58302;51.446;-2.000;2023-01-25T01:03:35;102900.53;;;-4.28;100.00
55301;BME280;58302;51.446;-2.000;2023-01-25T01:06:04;102911.91;;;-4.26;100.00
55301;BME280;58302;51.446;-2.000;2023-01-25T01:08:35;102906.47;;;-4.24;100.00
55301;BME280;58302;51.446;-2.000;2023-01-25T01:11:05;102910.50;;;-4.18;100.00
55301;BME280;58302;51.446;-2.000;2023-01-25T01:13:32;102909.41;;;-4.03;100.00
55301;BME280;58302;51.446;-2.000;2023-01-25T01:16:03;102906.59;;;-3.76;100.00
55301;BME280;58302;51.446;-2.000;2023-01-25T01:18:37;102908.69;;;-3.68;100.00
55301;BME280;58302;51.446;-2.000;2023-01-25T01:21:04;102918.25;;;-3.66;100.00
55301;BME280;58302;51.446;-2.000;2023-01-25T01:23:31;102914.50;;;-3.63;100.00
55301;BME280;58302;51.446;-2.000;2023-01-25T01:25:59;102921.63;;;-3.64;100.00
55301;BME280;58302;51.446;-2.000;2023-01-25T01:28:30;102917.16;;;-3.63;100.00
55301;BME280;58302;51.446;-2.000;2023-01-25T01:31:04;102920.66;;;-3.63;100.00
55301;BME280;58302;51.446;-2.000;2023-01-25T01:33:30;102920.78;;;-3.64;100.00
55301;BME280;58302;51.446;-2.000;2023-01-25T01:35:56;102920.91;;;-3.66;100.00
55301;BME280;58302;51.446;-2.000;2023-01-25T01:38:23;102922.59;;;-3.65;100.00
55301;BME280;58302;51.446;-2.000;2023-01-25T01:40:49;102921.88;;;-3.67;100.00
55301;BME280;58302;51.446;-2.000;2023-01-25T01:43:19;102921.97;;;-3.68;100.00
55301;BME280;58302;51.446;-2.000;2023-01-25T01:50:51;102927.19;;;-3.67;100.00
55301;BME280;58302;51.446;-2.000;2023-01-25T01:53:20;102930.91;;;-3.69;100.00
55301;BME280;58302;51.446;-2.000;2023-01-25T01:55:46;102927.41;;;-3.70;100.00
55301;BME280;58302;51.446;-2.000;2023-01-25T01:58:12;102923.69;;;-3.67;100.00
55301;BME280;58302;51.446;-2.000;2023-01-25T02:00:39;102912.03;;;-3.54;100.00
55301;BME280;58302;51.446;-2.000;2023-01-25T02:03:06;102921.88;;;-3.43;100.00
55301;BME280;58302;51.446;-2.000;2023-01-25T02:05:47;102919.88;;;-3.39;100.00
55301;BME280;58302;51.446;-2.000;2023-01-25T02:08:17;102920.91;;;-3.42;100.00
55301;BME280;58302;51.446;-2.000;2023-01-25T02:10:44;102924.78;;;-3.46;100.00
55301;BME280;58302;51.446;-2.000;2023-01-25T02:13:11;102921.16;;;-3.45;100.00
55301;BME280;58302;51.446;-2.000;2023-01-25T02:15:45;102916.81;;;-3.46;100.00
55301;BME280;58302;51.446;-2.000;2023-01-25T02:18:12;102922.22;;;-3.48;100.00
55301;BME280;58302;51.446;-2.000;2023-01-25T02:20:42;102916.31;;;-3.51;100.00
55301;BME280;58302;51.446;-2.000;2023-01-25T02:23:43;102915.22;;;-3.49;100.00
55301;BME280;58302;51.446;-2.000;2023-01-25T02:26:16;102915.84;;;-3.45;100.00
55301;BME280;58302;51.446;-2.000;2023-01-25T02:28:58;102911.38;;;-3.45;100.00
55301;BME280;58302;51.446;-2.000;2023-01-25T02:31:25;102911.59;;;-3.48;100.00
55301;BME280;58302;51.446;-2.000;2023-01-25T02:33:51;102908.09;;;-3.48;100.00
55301;BME280;58302;51.446;-2.000;2023-01-25T02:36:26;102909.91;;;-3.49;100.00
55301;BME280;58302;51.446;-2.000;2023-01-25T02:38:56;102902.03;;;-3.50;100.00
55301;BME280;58302;51.446;-2.000;2023-01-25T02:44:03;102899.38;;;-3.50;100.00
55301;BME280;58302;51.446;-2.000;2023-01-25T02:46:32;102902.88;;;-3.50;100.00
55301;BME280;58302;51.446;-2.000;2023-01-25T02:49:00;102889.47;;;-3.48;100.00
55301;BME280;58302;51.446;-2.000;2023-01-25T02:51:28;102886.59;;;-3.45;100.00
55301;BME280;58302;51.446;-2.000;2023-01-25T02:53:55;102883.94;;;-3.45;100.00
55301;BME280;58302;51.446;-2.000;2023-01-25T02:56:21;102885.75;;;-3.46;100.00
55301;BME280;58302;51.446;-2.000;2023-01-25T02:58:47;102884.66;;;-3.43;100.00
55301;BME280;58302;51.446;-2.000;2023-01-25T03:01:14;102880.19;;;-3.42;100.00
55301;BME280;58302;51.446;-2.000;2023-01-25T03:03:40;102879.22;;;-3.41;100.00
55301;BME280;58302;51.446;-2.000;2023-01-25T03:06:06;102880.00;;;-3.39;100.00
55301;BME280;58302;51.446;-2.000;2023-01-25T03:08:33;102873.81;;;-3.40;100.00
55301;BME280;58302;51.446;-2.000;2023-01-25T03:11:01;102884.34;;;-3.38;100.00
55301;BME280;58302;51.446;-2.000;2023-01-25T03:13:28;102875.91;;;-3.32;100.00
55301;BME280;58302;51.446;-2.000;2023-01-25T03:15:59;102877.25;;;-3.27;100.00
55301;BME280;58302;51.446;-2.000;2023-01-25T03:18:26;102878.38;;;-3.18;100.00
55301;BME280;58302;51.446;-2.000;2023-01-25T03:20:51;102884.34;;;-3.03;100.00
55301;BME280;58302;51.446;-2.000;2023-01-25T03:23:17;102881.13;;;-2.96;100.00
55301;BME280;58302;51.446;-2.000;2023-01-25T03:25:43;102886.19;;;-2.93;100.00
55301;BME280;58302;51.446;-2.000;2023-01-25T03:28:09;102883.44;;;-2.91;100.00
55301;BME280;58302;51.446;-2.000;2023-01-25T03:30:35;102880.88;;;-2.93;100.00
55301;BME280;58302;51.446;-2.000;2023-01-25T03:33:01;102880.66;;;-2.89;100.00
55301;BME280;58302;51.446;-2.000;2023-01-25T03:35:27;102886.19;;;-2.93;100.00
55301;BME280;58302;51.446;-2.000;2023-01-25T03:37:53;102876.75;;;-2.97;100.00
55301;BME280;58302;51.446;-2.000;2023-01-25T03:40:19;102879.31;;;-2.95;100.00
55301;BME280;58302;51.446;-2.000;2023-01-25T03:42:45;102883.81;;;-2.84;100.00
55301;BME280;58302;51.446;-2.000;2023-01-25T03:45:11;102885.88;;;-2.77;100.00
55301;BME280;58302;51.446;-2.000;2023-01-25T03:47:40;102882.56;;;-2.80;100.00
55301;BME280;58302;51.446;-2.000;2023-01-25T03:50:06;102886.22;;;-2.81;100.00
55301;BME280;58302;51.446;-2.000;2023-01-25T03:52:33;102881.16;;;-2.73;100.00
55301;BME280;58302;51.446;-2.000;2023-01-25T03:55:03;102885.72;;;-2.75;100.00
55301;BME280;58302;51.446;-2.000;2023-01-25T03:57:30;102882.47;;;-2.79;100.00
55301;BME280;58302;51.446;-2.000;2023-01-25T03:59:56;102888.03;;;-2.82;100.00
55301;BME280;58302;51.446;-2.000;2023-01-25T04:02:22;102887.19;;;-2.82;100.00
55301;BME280;58302;51.446;-2.000;2023-01-25T04:04:47;102883.91;;;-2.75;100.00
55301;BME280;58302;51.446;-2.000;2023-01-25T04:07:13;102882.34;;;-2.77;100.00
55301;BME280;58302;51.446;-2.000;2023-01-25T04:09:39;102883.69;;;-2.83;100.00
55301;BME280;58302;51.446;-2.000;2023-01-25T04:12:05;102885.63;;;-2.85;100.00
55301;BME280;58302;51.446;-2.000;2023-01-25T04:14:31;102881.38;;;-2.87;100.00
55301;BME280;58302;51.446;-2.000;2023-01-25T04:16:57;102884.16;;;-2.89;100.00
55301;BME280;58302;51.446;-2.000;2023-01-25T04:19:23;102884.28;;;-2.90;100.00
55301;BME280;58302;51.446;-2.000;2023-01-25T04:21:49;102881.50;;;-2.89;100.00
55301;BME280;58302;51.446;-2.000;2023-01-25T04:24:15;102880.66;;;-2.89;100.00
55301;BME280;58302;51.446;-2.000;2023-01-25T04:26:41;102879.78;;;-2.90;100.00
55301;BME280;58302;51.446;-2.000;2023-01-25T04:29:07;102879.31;;;-2.84;100.00
55301;BME280;58302;51.446;-2.000;2023-01-25T04:31:33;102875.69;;;-2.83;100.00
55301;BME280;58302;51.446;-2.000;2023-01-25T04:33:59;102878.22;;;-2.81;100.00
55301;BME280;58302;51.446;-2.000;2023-01-25T04:36:24;102883.31;;;-2.78;100.00
55301;BME280;58302;51.446;-2.000;2023-01-25T04:38:50;102869.78;;;-2.75;100.00
55301;BME280;58302;51.446;-2.000;2023-01-25T04:41:16;102879.47;;;-2.74;100.00
55301;BME280;58302;51.446;-2.000;2023-01-25T04:43:42;102870.75;;;-2.76;100.00
55301;BME280;58302;51.446;-2.000;2023-01-25T04:46:08;102878.59;;;-2.75;100.00
55301;BME280;58302;51.446;-2.000;2023-01-25T04:48:34;102878.38;;;-2.72;100.00
55301;BME280;58302;51.446;-2.000;2023-01-25T04:51:00;102872.56;;;-2.66;100.00
55301;BME280;58302;51.446;-2.000;2023-01-25T04:53:26;102875.97;;;-2.63;100.00
55301;BME280;58302;51.446;-2.000;2023-01-25T04:55:52;102873.19;;;-2.62;100.00
55301;BME280;58302;51.446;-2.000;2023-01-25T04:58:18;102863.13;;;-2.58;100.00
55301;BME280;58302;51.446;-2.000;2023-01-25T05:00:44;102862.44;;;-2.49;100.00
55301;BME280;58302;51.446;-2.000;2023-01-25T05:03:10;102868.38;;;-2.46;100.00
55301;BME280;58302;51.446;-2.000;2023-01-25T05:05:36;102858.91;;;-2.50;100.00
55301;BME280;58302;51.446;-2.000;2023-01-25T05:08:02;102857.59;;;-2.55;100.00
55301;BME280;58302;51.446;-2.000;2023-01-25T05:10:28;102858.69;;;-2.58;100.00
55301;BME280;58302;51.446;-2.000;2023-01-25T05:12:54;102859.63;;;-2.59;100.00
55301;BME280;58302;51.446;-2.000;2023-01-25T05:15:20;102845.38;;;-2.58;100.00
55301;BME280;58302;51.446;-2.000;2023-01-25T05:17:46;102848.03;;;-2.58;100.00
55301;BME280;58302;51.446;-2.000;2023-01-25T05:20:12;102849.72;;;-2.57;100.00
55301;BME280;58302;51.446;-2.000;2023-01-25T05:22:38;102836.28;;;-2.55;100.00
55301;BME280;58302;51.446;-2.000;2023-01-25T05:25:04;102843.19;;;-2.53;100.00
55301;BME280;58302;51.446;-2.000;2023-01-25T05:27:50;102842.59;;;-2.45;100.00
55301;BME280;58302;51.446;-2.000;2023-01-25T05:30:16;102836.41;;;-2.46;100.00
55301;BME280;58302;51.446;-2.000;2023-01-25T05:32:42;102832.06;;;-2.47;100.00
55301;BME280;58302;51.446;-2.000;2023-01-25T05:35:08;102829.91;;;-2.42;100.00
55301;BME280;58302;51.446;-2.000;2023-01-25T05:37:34;102824.94;;;-2.46;100.00
55301;BME280;58302;51.446;-2.000;2023-01-25T05:39:59;102829.16;;;-2.44;100.00
55301;BME280;58302;51.446;-2.000;2023-01-25T05:42:25;102821.03;;;-2.42;100.00
55301;BME280;58302;51.446;-2.000;2023-01-25T05:44:51;102826.25;;;-2.41;100.00
55301;BME280;58302;51.446;-2.000;2023-01-25T05:47:19;102831.31;;;-2.38;100.00
55301;BME280;58302;51.446;-2.000;2023-01-25T05:49:45;102831.81;;;-2.32;100.00
55301;BME280;58302;51.446;-2.000;2023-01-25T05:52:13;102814.50;;;-2.27;100.00
55301;BME280;58302;51.446;-2.000;2023-01-25T05:54:39;102816.44;;;-2.29;100.00
55301;BME280;58302;51.446;-2.000;2023-01-25T05:57:05;102814.75;;;-2.30;100.00
55301;BME280;58302;51.446;-2.000;2023-01-25T05:59:31;102804.09;;;-2.30;100.00
55301;BME280;58302;51.446;-2.000;2023-01-25T06:01:57;102813.41;;;-2.24;100.00
55301;BME280;58302;51.446;-2.000;2023-01-25T06:04:23;102802.03;;;-2.26;100.00
55301;BME280;58302;51.446;-2.000;2023-01-25T06:06:49;102802.75;;;-2.24;100.00
55301;BME280;58302;51.446;-2.000;2023-01-25T06:09:15;102800.34;;;-2.27;100.00
55301;BME280;58302;51.446;-2.000;2023-01-25T06:11:44;102795.38;;;-2.32;100.00
55301;BME280;58302;51.446;-2.000;2023-01-25T06:14:10;102795.50;;;-2.33;100.00
55301;BME280;58302;51.446;-2.000;2023-01-25T06:16:37;102789.47;;;-2.35;100.00
55301;BME280;58302;51.446;-2.000;2023-01-25T06:19:06;102793.69;;;-2.33;100.00
55301;BME280;58302;51.446;-2.000;2023-01-25T06:21:33;102783.28;;;-2.36;100.00
55301;BME280;58302;51.446;-2.000;2023-01-25T06:24:02;102796.47;;;-2.34;100.00
55301;BME280;58302;51.446;-2.000;2023-01-25T06:26:28;102792.97;;;-2.35;100.00
55301;BME280;58302;51.446;-2.000;2023-01-25T06:28:54;102785.81;;;-2.34;100.00
55301;BME280;58302;51.446;-2.000;2023-01-25T06:31:20;102787.50;;;-2.33;100.00
55301;BME280;58302;51.446;-2.000;2023-01-25T06:33:48;102780.25;;;-2.31;100.00
55301;BME280;58302;51.446;-2.000;2023-01-25T06:36:16;102785.56;;;-2.31;100.00
55301;BME280;58302;51.446;-2.000;2023-01-25T06:38:47;102779.28;;;-2.30;100.00
55301;BME280;58302;51.446;-2.000;2023-01-25T06:41:13;102782.06;;;-2.32;100.00
55301;BME280;58302;51.446;-2.000;2023-01-25T06:43:39;102784.72;;;-2.32;100.00
55301;BME280;58302;51.446;-2.000;2023-01-25T06:46:07;102787.50;;;-2.33;100.00
55301;BME280;58302;51.446;-2.000;2023-01-25T06:48:34;102776.03;;;-2.34;100.00
55301;BME280;58302;51.446;-2.000;2023-01-25T06:51:11;102783.16;;;-2.34;100.00
55301;BME280;58302;51.446;-2.000;2023-01-25T06:53:40;102776.03;;;-2.34;100.00
55301;BME280;58302;51.446;-2.000;2023-01-25T06:56:11;102774.19;;;-2.33;100.00
55301;BME280;58302;51.446;-2.000;2023-01-25T06:58:38;102764.25;;;-2.31;100.00
55301;BME280;58302;51.446;-2.000;2023-01-25T07:01:13;102763.75;;;-2.25;100.00
55301;BME280;58302;51.446;-2.000;2023-01-25T07:03:40;102759.66;;;-2.18;100.00
55301;BME280;58302;51.446;-2.000;2023-01-25T07:06:07;102757.00;;;-2.18;100.00
55301;BME280;58302;51.446;-2.000;2023-01-25T07:08:34;102760.50;;;-2.18;100.00
55301;BME280;58302;51.446;-2.000;2023-01-25T07:11:04;102755.28;;;-2.19;100.00
55301;BME280;58302;51.446;-2.000;2023-01-25T07:13:31;102758.66;;;-2.17;100.00
55301;BME280;58302;51.446;-2.000;2023-01-25T07:16:00;102751.66;;;-2.18;100.00
55301;BME280;58302;51.446;-2.000;2023-01-25T07:18:28;102746.19;;;-2.17;100.00
55301;BME280;58302;51.446;-2.000;2023-01-25T07:21:01;102753.47;;;-2.19;100.00
55301;BME280;58302;51.446;-2.000;2023-01-25T07:23:29;102752.38;;;-2.16;100.00
55301;BME280;58302;51.446;-2.000;2023-01-25T07:25:57;102747.31;;;-2.19;100.00
55301;BME280;58302;51.446;-2.000;2023-01-25T07:28:23;102751.38;;;-2.15;100.00
55301;BME280;58302;51.446;-2.000;2023-01-25T07:30:49;102759.16;;;-2.12;100.00
55301;BME280;58302;51.446;-2.000;2023-01-25T07:33:16;102756.34;;;-2.10;100.00
55301;BME280;58302;51.446;-2.000;2023-01-25T07:35:42;102756.34;;;-2.10;100.00
55301;BME280;58302;51.446;-2.000;2023-01-25T07:38:08;102750.66;;;-2.06;100.00
55301;BME280;58302;51.446;-2.000;2023-01-25T07:40:34;102753.06;;;-2.03;100.00
55301;BME280;58302;51.446;-2.000;2023-01-25T07:43:00;102754.75;;;-2.02;100.00
55301;BME280;58302;51.446;-2.000;2023-01-25T07:45:26;102754.25;;;-1.96;100.00
55301;BME280;58302;51.446;-2.000;2023-01-25T07:47:56;102753.41;;;-1.96;100.00
55301;BME280;58302;51.446;-2.000;2023-01-25T07:50:22;102763.69;;;-1.92;100.00
55301;BME280;58302;51.446;-2.000;2023-01-25T07:52:48;102761.03;;;-1.92;100.00
55301;BME280;58302;51.446;-2.000;2023-01-25T07:55:14;102757.63;;;-1.94;100.00
55301;BME280;58302;51.446;-2.000;2023-01-25T07:57:40;102766.34;;;-1.92;100.00
55301;BME280;58302;51.446;-2.000;2023-01-25T08:00:07;102757.38;;;-1.91;100.00
55301;BME280;58302;51.446;-2.000;2023-01-25T08:02:34;102755.69;;;-1.92;100.00
55301;BME280;58302;51.446;-2.000;2023-01-25T08:05:00;102751.09;;;-1.90;100.00
55301;BME280;58302;51.446;-2.000;2023-01-25T08:07:28;102759.69;;;-1.86;100.00
55301;BME280;58302;51.446;-2.000;2023-01-25T08:09:54;102749.84;;;-1.86;100.00
55301;BME280;58302;51.446;-2.000;2023-01-25T08:12:20;102742.56;;;-1.83;100.00
55301;BME280;58302;51.446;-2.000;2023-01-25T08:14:47;102729.25;;;-1.83;100.00
55301;BME280;58302;51.446;-2.000;2023-01-25T08:17:14;102725.22;;;-1.78;100.00
55301;BME280;58302;51.446;-2.000;2023-01-25T08:19:40;102715.03;;;-1.73;100.00
55301;BME280;58302;51.446;-2.000;2023-01-25T08:22:07;102720.97;;;-1.69;100.00
55301;BME280;58302;51.446;-2.000;2023-01-25T08:24:33;102712.44;;;-1.63;100.00
55301;BME280;58302;51.446;-2.000;2023-01-25T08:26:59;102707.69;;;-1.60;100.00
55301;BME280;58302;51.446;-2.000;2023-01-25T08:29:25;102714.59;;;-1.57;100.00
55301;BME280;58302;51.446;-2.000;2023-01-25T08:31:53;102707.03;;;-1.52;100.00
55301;BME280;58302;51.446;-2.000;2023-01-25T08:34:19;102707.28;;;-1.55;100.00
55301;BME280;58302;51.446;-2.000;2023-01-25T08:36:45;102696.75;;;-1.56;100.00
55301;BME280;58302;51.446;-2.000;2023-01-25T08:39:11;102706.31;;;-1.54;100.00
55301;BME280;58302;51.446;-2.000;2023-01-25T08:41:38;102689.22;;;-1.51;100.00
55301;BME280;58302;51.446;-2.000;2023-01-25T08:44:04;102694.88;;;-1.45;100.00
55301;BME280;58302;51.446;-2.000;2023-01-25T08:46:32;102686.09;;;-1.36;100.00
55301;BME280;58302;51.446;-2.000;2023-01-25T08:49:00;102691.88;;;-1.30;100.00
55301;BME280;58302;51.446;-2.000;2023-01-25T08:51:27;102698.91;;;-1.29;100.00
55301;BME280;58302;51.446;-2.000;2023-01-25T08:53:53;102688.69;;;-1.24;100.00
55301;BME280;58302;51.446;-2.000;2023-01-25T08:56:20;102692.78;;;-1.20;100.00
55301;BME280;58302;51.446;-2.000;2023-01-25T08:58:47;102693.47;;;-1.18;100.00
55301;BME280;58302;51.446;-2.000;2023-01-25T09:01:14;102688.84;;;-1.16;100.00
55301;BME280;58302;51.446;-2.000;2023-01-25T09:03:47;102679.88;;;-1.15;100.00
55301;BME280;58302;51.446;-2.000;2023-01-25T09:06:14;102662.75;;;-1.13;100.00
55301;BME280;58302;51.446;-2.000;2023-01-25T09:08:41;102661.63;;;-1.10;100.00
55301;BME280;58302;51.446;-2.000;2023-01-25T09:11:09;102646.63;;;-1.01;100.00
55301;BME280;58302;51.446;-2.000;2023-01-25T09:13:36;102659.16;;;-1.02;100.00
55301;BME280;58302;51.446;-2.000;2023-01-25T09:16:06;102642.72;;;-0.97;100.00
55301;BME280;58302;51.446;-2.000;2023-01-25T09:18:37;102628.16;;;-0.93;100.00
55301;BME280;58302;51.446;-2.000;2023-01-25T09:21:08;102629.09;;;-0.94;100.00
55301;BME280;58302;51.446;-2.000;2023-01-25T09:23:35;102618.03;;;-0.90;100.00
55301;BME280;58302;51.446;-2.000;2023-01-25T09:26:01;102615.22;;;-0.88;100.00
55301;BME280;58302;51.446;-2.000;2023-01-25T09:28:28;102623.66;;;-0.83;100.00
55301;BME280;58302;51.446;-2.000;2023-01-25T09:30:56;102621.31;;;-0.76;100.00
55301;BME280;58302;51.446;-2.000;2023-01-25T09:33:27;102620.88;;;-0.72;100.00
55301;BME280;58302;51.446;-2.000;2023-01-25T09:35:53;102616.53;;;-0.63;100.00
55301;BME280;58302;51.446;-2.000;2023-01-25T09:38:20;102616.66;;;-0.55;100.00
55301;BME280;58302;51.446;-2.000;2023-01-25T09:46:41;102606.59;;;-0.32;100.00
55301;BME280;58302;51.446;-2.000;2023-01-25T09:51:44;102600.25;;;-0.21;100.00
55301;BME280;58302;51.446;-2.000;2023-01-25T09:54:16;102594.03;;;-0.12;100.00
55301;BME280;58302;51.446;-2.000;2023-01-25T09:56:47;102592.38;;;-0.04;100.00
55301;BME280;58302;51.446;-2.000;2023-01-25T09:59:18;102585.34;;;-0.05;100.00
55301;BME280;58302;51.446;-2.000;2023-01-25T10:01:59;102580.94;;;0.04;100.00
55301;BME280;58302;51.446;-2.000;2023-01-25T10:04:33;102579.78;;;0.16;100.00
55301;BME280;58302;51.446;-2.000;2023-01-25T10:07:13;102567.53;;;0.33;100.00
55301;BME280;58302;51.446;-2.000;2023-01-25T10:10:05;102563.25;;;0.50;100.00
55301;BME280;58302;51.446;-2.000;2023-01-25T10:12:35;102555.31;;;0.58;100.00
55301;BME280;58302;51.446;-2.000;2023-01-25T10:15:21;102552.19;;;0.63;100.00
55301;BME280;58302;51.446;-2.000;2023-01-25T10:18:20;102547.47;;;0.74;100.00
55301;BME280;58302;51.446;-2.000;2023-01-25T10:26:41;102565.06;;;1.04;100.00
55301;BME280;58302;51.446;-2.000;2023-01-25T10:29:26;102569.28;;;1.07;100.00
55301;BME280;58302;51.446;-2.000;2023-01-25T10:31:54;102560.94;;;1.10;100.00
55301;BME280;58302;51.446;-2.000;2023-01-25T10:34:29;102552.75;;;1.12;100.00
55301;BME280;58302;51.446;-2.000;2023-01-25T10:37:01;102551.91;;;1.11;100.00
55301;BME280;58302;51.446;-2.000;2023-01-25T10:39:28;102545.97;;;1.17;100.00
55301;BME280;58302;51.446;-2.000;2023-01-25T10:41:58;102538.75;;;1.18;100.00
55301;BME280;58302;51.446;-2.000;2023-01-25T10:44:25;102523.16;;;1.13;100.00
55301;BME280;58302;51.446;-2.000;2023-01-25T10:46:58;102516.41;;;1.09;100.00
55301;BME280;58302;51.446;-2.000;2023-01-25T10:50:04;102503.72;;;1.11;100.00
55301;BME280;58302;51.446;-2.000;2023-01-25T10:52:30;102495.53;;;1.13;100.00
55301;BME280;58302;51.446;-2.000;2023-01-25T10:57:42;102476.38;;;1.25;100.00
55301;BME280;58302;51.446;-2.000;2023-01-25T11:00:36;102476.47;;;1.34;100.00
55301;BME280;58302;51.446;-2.000;2023-01-25T11:03:04;102476.22;;;1.45;100.00
55301;BME280;58302;51.446;-2.000;2023-01-25T11:05:33;102480.28;;;1.49;100.00
55301;BME280;58302;51.446;-2.000;2023-01-25T11:10:57;102489.25;;;1.83;100.00
55301;BME280;58302;51.446;-2.000;2023-01-25T11:13:33;102482.94;;;1.93;100.00
55301;BME280;58302;51.446;-2.000;2023-01-25T11:18:28;102469.97;;;2.14;100.00
55301;BME280;58302;51.446;-2.000;2023-01-25T11:23:31;102444.59;;;2.34;100.00
55301;BME280;58302;51.446;-2.000;2023-01-25T11:26:18;102428.34;;;2.44;100.00
55301;BME280;58302;51.446;-2.000;2023-01-25T11:28:45;102416.59;;;2.37;100.00
55301;BME280;58302;51.446;-2.000;2023-01-25T11:31:19;102422.34;;;2.50;100.00
55301;BME280;58302;51.446;-2.000;2023-01-25T11:33:45;102413.31;;;2.59;100.00
55301;BME280;58302;51.446;-2.000;2023-01-25T11:38:47;102446.88;;;2.80;100.00
55301;BME280;58302;51.446;-2.000;2023-01-25T11:55:30;102462.41;;;3.43;100.00
55301;BME280;58302;51.446;-2.000;2023-01-25T12:08:43;102442.19;;;3.80;100.00
55301;BME280;58302;51.446;-2.000;2023-01-25T12:16:53;102430.16;;;4.15;100.00
55301;BME280;58302;51.446;-2.000;2023-01-25T12:30:20;102428.41;;;4.30;100.00
55301;BME280;58302;51.446;-2.000;2023-01-25T12:32:53;102428.75;;;4.27;100.00
55301;BME280;58302;51.446;-2.000;2023-01-25T12:38:03;102421.25;;;4.14;100.00
55301;BME280;58302;51.446;-2.000;2023-01-25T12:43:10;102392.34;;;4.08;100.00
55301;BME280;58302;51.446;-2.000;2023-01-25T12:45:40;102388.19;;;3.97;100.00
55301;BME280;58302;51.446;-2.000;2023-01-25T12:48:17;102396.59;;;3.94;100.00
55301;BME280;58302;51.446;-2.000;2023-01-25T12:50:53;102400.44;;;4.00;100.00
55301;BME280;58302;51.446;-2.000;2023-01-25T12:53:24;102413.56;;;3.95;100.00
55301;BME280;58302;51.446;-2.000;2023-01-25T12:55:52;102416.09;;;3.88;100.00
55301;BME280;58302;51.446;-2.000;2023-01-25T12:58:26;102406.69;;;3.84;100.00
55301;BME280;58302;51.446;-2.000;2023-01-25T13:01:19;102412.44;;;3.81;100.00
55301;BME280;58302;51.446;-2.000;2023-01-25T13:06:44;102397.69;;;3.69;100.00
55301;BME280;58302;51.446;-2.000;2023-01-25T13:09:28;102389.63;;;3.61;100.00
55301;BME280;58302;51.446;-2.000;2023-01-25T13:11:55;102383.09;;;3.63;100.00
55301;BME280;58302;51.446;-2.000;2023-01-25T13:14:40;102369.31;;;3.58;100.00
55301;BME280;58302;51.446;-2.000;2023-01-25T13:22:03;102373.53;;;3.53;100.00
55301;BME280;58302;51.446;-2.000;2023-01-25T13:24:30;102353.88;;;3.52;100.00
55301;BME280;58302;51.446;-2.000;2023-01-25T13:27:30;102346.78;;;3.51;100.00
55301;BME280;58302;51.446;-2.000;2023-01-25T13:35:27;102339.78;;;3.42;100.00
55301;BME280;58302;51.446;-2.000;2023-01-25T13:37:58;102337.09;;;3.34;100.00
55301;BME280;58302;51.446;-2.000;2023-01-25T13:40:37;102323.38;;;3.21;100.00
55301;BME280;58302;51.446;-2.000;2023-01-25T13:43:17;102311.09;;;3.18;100.00
55301;BME280;58302;51.446;-2.000;2023-01-25T13:45:45;102302.38;;;3.16;100.00
55301;BME280;58302;51.446;-2.000;2023-01-25T13:48:15;102297.34;;;3.21;100.00
55301;BME280;58302;51.446;-2.000;2023-01-25T13:50:51;102297.00;;;3.24;100.00
55301;BME280;58302;51.446;-2.000;2023-01-25T13:53:23;102298.69;;;3.25;100.00
55301;BME280;58302;51.446;-2.000;2023-01-25T13:55:55;102295.13;;;3.33;100.00
55301;BME280;58302;51.446;-2.000;2023-01-25T13:58:28;102290.72;;;3.48;100.00
55301;BME280;58302;51.446;-2.000;2023-01-25T14:00:57;102277.72;;;3.60;100.00
55301;BME280;58302;51.446;-2.000;2023-01-25T14:03:29;102277.06;;;3.58;100.00
55301;BME280;58302;51.446;-2.000;2023-01-25T14:05:57;102286.28;;;3.63;100.00
55301;BME280;58302;51.446;-2.000;2023-01-25T14:08:25;102285.09;;;3.66;100.00
55301;BME280;58302;51.446;-2.000;2023-01-25T14:10:53;102278.38;;;3.62;100.00
55301;BME280;58302;51.446;-2.000;2023-01-25T14:13:20;102277.91;;;3.58;100.00
55301;BME280;58302;51.446;-2.000;2023-01-25T14:16:00;102267.63;;;3.62;100.00
55301;BME280;58302;51.446;-2.000;2023-01-25T14:18:27;102256.53;;;3.65;100.00
55301;BME280;58302;51.446;-2.000;2023-01-25T14:21:15;102261.41;;;3.69;100.00
55301;BME280;58302;51.446;-2.000;2023-01-25T14:23:42;102265.56;;;3.72;100.00